sensor_id;sensor_type;location;lat;lon;timestamp;noise_LAeq;noise_LA_min;noise_LA_max;noise_LA01;noise_LA95
67302;Laerm;57659;51.436;5.978;2024-03-29T00:00:01;32.83;28.69;41.51;;
67302;Laerm;57659;51.436;5.978;2024-03-29T00:00:13;44.13;28.76;52.36;;
67302;Laerm;57659;51.436;5.978;2024-03-29T00:00:23;48.89;43.16;60.24;;
67302;Laerm;57659;51.436;5.978;2024-03-29T00:00:34;43.96;29.34;49.75;;
67302;Laerm;57659;51.436;5.978;2024-03-29T00:00:44;33.57;28.73;43.11;;
67302;Laerm;57659;51.436;5.978;2024-03-29T00:00:55;33.67;28.69;42.98;;
67302;Laerm;57659;51.436;5.978;2024-03-29T00:01:05;33.49;28.60;41.88;;
67302;Laerm;57659;51.436;5.978;2024-03-29T00:01:15;32.79;28.52;41.95;;
67302;Laerm;57659;51.436;5.978;2024-03-29T00:01:26;33.47;28.28;42.28;;
67302;Laerm;57659;51.436;5.978;2024-03-29T00:01:36;33.71;28.55;42.28;;
67302;Laerm;57659;51.436;5.978;2024-03-29T00:01:46;33.52;28.41;42.46;;
67302;Laerm;57659;51.436;5.978;2024-03-29T00:01:56;33.19;28.60;41.49;;
67302;Laerm;57659;51.436;5.978;2024-03-29T00:02:07;33.20;28.62;42.14;;
67302;Laerm;57659;51.436;5.978;2024-03-29T00:02:18;33.79;28.15;42.72;;
67302;Laerm;57659;51.436;5.978;2024-03-29T00:02:28;33.59;28.50;42.52;;
67302;Laerm;57659;51.436;5.978;2024-03-29T00:02:38;33.53;28.70;42.51;;
67302;Laerm;57659;51.436;5.978;2024-03-29T00:02:48;33.63;28.46;43.17;;
67302;Laerm;57659;51.436;5.978;2024-03-29T00:02:59;33.87;28.32;43.39;;
67302;Laerm;57659;51.436;5.978;2024-03-29T00:03:09;33.61;28.26;43.40;;
67302;Laerm;57659;51.436;5.978;2024-03-29T00:03:20;33.43;28.55;42.44;;
67302;Laerm;57659;51.436;5.978;2024-03-29T00:03:30;33.73;28.46;43.52;;
67302;Laerm;57659;51.436;5.978;2024-03-29T00:03:41;33.84;28.45;43.77;;
67302;Laerm;57659;51.436;5.978;2024-03-29T00:03:52;33.78;28.52;43.78;;
67302;Laerm;57659;51.436;5.978;2024-03-29T00:04:05;33.64;28.39;43.36;;
67302;Laerm;57659;51.436;5.978;2024-03-29T00:04:15;33.54;28.56;43.55;;
67302;Laerm;57659;51.436;5.978;2024-03-29T00:04:25;33.74;28.54;43.24;;
67302;Laerm;57659;51.436;5.978;2024-03-29T00:04:36;33.54;28.30;42.95;;
67302;Laerm;57659;51.436;5.978;2024-03-29T00:04:46;33.52;28.62;43.72;;
67302;Laerm;57659;51.436;5.978;2024-03-29T00:04:56;33.46;28.58;43.10;;
67302;Laerm;57659;51.436;5.978;2024-03-29T00:05:07;33.52;28.13;42.10;;
67302;Laerm;57659;51.436;5.978;2024-03-29T00:05:17;33.10;28.53;42.74;;
67302;Laerm;57659;51.436;5.978;2024-03-29T00:05:27;33.35;28.62;42.80;;
67302;Laerm;57659;51.436;5.978;2024-03-29T00:05:38;33.35;28.44;42.22;;
67302;Laerm;57659;51.436;5.978;2024-03-29T00:05:48;33.21;28.45;42.14;;
67302;Laerm;57659;51.436;5.978;2024-03-29T00:05:58;32.85;28.24;41.11;;
67302;Laerm;57659;51.436;5.978;2024-03-29T00:06:09;33.19;28.42;41.97;;
67302;Laerm;57659;51.436;5.978;2024-03-29T00:06:19;33.50;28.55;42.47;;
67302;Laerm;57659;51.436;5.978;2024-03-29T00:06:29;33.60;28.55;42.86;;
67302;Laerm;57659;51.436;5.978;2024-03-29T00:06:40;33.20;28.58;42.05;;
67302;Laerm;57659;51.436;5.978;2024-03-29T00:06:50;33.35;28.74;42.58;;
67302;Laerm;57659;51.436;5.978;2024-03-29T00:07:00;33.41;28.40;42.62;;
67302;Laerm;57659;51.436;5.978;2024-03-29T00:07:11;33.45;28.48;42.48;;
67302;Laerm;57659;51.436;5.978;2024-03-29T00:07:21;32.89;28.58;42.46;;
67302;Laerm;57659;51.436;5.978;2024-03-29T00:07:31;32.94;28.49;42.14;;
67302;Laerm;57659;51.436;5.978;2024-03-29T00:07:41;33.05;28.41;42.17;;
67302;Laerm;57659;51.436;5.978;2024-03-29T00:07:52;33.30;28.48;42.38;;
67302;Laerm;57659;51.436;5.978;2024-03-29T00:08:05;33.08;28.47;42.18;;
67302;Laerm;57659;51.436;5.978;2024-03-29T00:08:15;32.75;28.22;41.85;;
67302;Laerm;57659;51.436;5.978;2024-03-29T00:08:25;33.26;28.30;42.43;;
67302;Laerm;57659;51.436;5.978;2024-03-29T00:08:35;33.34;28.59;42.94;;
67302;Laerm;57659;51.436;5.978;2024-03-29T00:08:47;33.01;28.77;42.06;;
67302;Laerm;57659;51.436;5.978;2024-03-29T00:08:57;33.11;28.53;42.50;;
67302;Laerm;57659;51.436;5.978;2024-03-29T00:09:07;33.36;28.60;42.69;;
67302;Laerm;57659;51.436;5.978;2024-03-29T00:09:17;33.29;28.59;42.32;;
67302;Laerm;57659;51.436;5.978;2024-03-29T00:09:28;32.72;28.13;42.22;;
67302;Laerm;57659;51.436;5.978;2024-03-29T00:09:38;33.15;28.23;41.74;;
67302;Laerm;57659;51.436;5.978;2024-03-29T00:09:48;33.33;28.35;41.65;;
67302;Laerm;57659;51.436;5.978;2024-03-29T00:09:59;33.45;28.66;42.09;;
67302;Laerm;57659;51.436;5.978;2024-03-29T00:10:09;33.18;27.89;42.01;;
67302;Laerm;57659;51.436;5.978;2024-03-29T00:10:19;33.72;28.83;41.96;;
67302;Laerm;57659;51.436;5.978;2024-03-29T00:10:29;34.26;28.83;42.72;;
67302;Laerm;57659;51.436;5.978;2024-03-29T00:10:40;33.30;28.28;42.46;;
67302;Laerm;57659;51.436;5.978;2024-03-29T00:10:50;33.16;28.49;41.86;;
67302;Laerm;57659;51.436;5.978;2024-03-29T00:11:00;32.99;28.59;42.36;;
67302;Laerm;57659;51.436;5.978;2024-03-29T00:11:10;33.44;28.73;42.74;;
67302;Laerm;57659;51.436;5.978;2024-03-29T00:11:21;33.07;28.07;42.50;;
67302;Laerm;57659;51.436;5.978;2024-03-29T00:11:31;33.09;28.44;42.06;;
67302;Laerm;57659;51.436;5.978;2024-03-29T00:11:41;32.93;28.56;42.67;;
67302;Laerm;57659;51.436;5.978;2024-03-29T00:11:51;33.18;28.56;42.63;;
67302;Laerm;57659;51.436;5.978;2024-03-29T00:12:02;32.73;28.51;41.44;;
67302;Laerm;57659;51.436;5.978;2024-03-29T00:12:12;33.03;28.40;41.54;;
67302;Laerm;57659;51.436;5.978;2024-03-29T00:12:22;33.14;28.65;42.76;;
67302;Laerm;57659;51.436;5.978;2024-03-29T00:12:33;33.34;28.38;42.72;;
67302;Laerm;57659;51.436;5.978;2024-03-29T00:12:43;33.20;28.43;41.92;;
67302;Laerm;57659;51.436;5.978;2024-03-29T00:12:53;32.97;28.55;41.89;;
67302;Laerm;57659;51.436;5.978;2024-03-29T00:13:03;33.13;28.45;42.04;;
67302;Laerm;57659;51.436;5.978;2024-03-29T00:13:14;33.53;28.41;41.95;;
67302;Laerm;57659;51.436;5.978;2024-03-29T00:13:24;33.40;28.64;42.06;;
67302;Laerm;57659;51.436;5.978;2024-03-29T00:13:34;32.86;28.43;41.22;;
67302;Laerm;57659;51.436;5.978;2024-03-29T00:13:45;33.26;28.43;42.02;;
67302;Laerm;57659;51.436;5.978;2024-03-29T00:13:55;33.62;28.65;42.81;;
67302;Laerm;57659;51.436;5.978;2024-03-29T00:14:05;33.38;28.52;42.54;;
67302;Laerm;57659;51.436;5.978;2024-03-29T00:14:15;33.27;28.33;41.74;;
67302;Laerm;57659;51.436;5.978;2024-03-29T00:14:26;32.97;28.75;41.64;;
67302;Laerm;57659;51.436;5.978;2024-03-29T00:14:36;33.56;28.45;42.63;;
67302;Laerm;57659;51.436;5.978;2024-03-29T00:14:46;33.91;28.56;42.99;;
67302;Laerm;57659;51.436;5.978;2024-03-29T00:14:58;33.28;28.50;41.94;;
67302;Laerm;57659;51.436;5.978;2024-03-29T00:15:08;33.00;28.52;42.67;;
67302;Laerm;57659;51.436;5.978;2024-03-29T00:15:20;33.54;28.43;42.77;;
67302;Laerm;57659;51.436;5.978;2024-03-29T00:15:31;41.34;29.04;46.77;;
67302;Laerm;57659;51.436;5.978;2024-03-29T00:15:42;45.09;41.29;49.81;;
67302;Laerm;57659;51.436;5.978;2024-03-29T00:15:52;42.47;29.73;47.70;;
67302;Laerm;57659;51.436;5.978;2024-03-29T00:16:02;33.39;28.75;42.19;;
67302;Laerm;57659;51.436;5.978;2024-03-29T00:16:13;33.36;28.57;41.91;;
67302;Laerm;57659;51.436;5.978;2024-03-29T00:16:23;33.37;28.61;42.82;;
67302;Laerm;57659;51.436;5.978;2024-03-29T00:16:35;33.35;28.54;42.41;;
67302;Laerm;57659;51.436;5.978;2024-03-29T00:16:46;33.49;28.74;42.35;;
67302;Laerm;57659;51.436;5.978;2024-03-29T00:16:57;33.29;28.44;41.79;;
67302;Laerm;57659;51.436;5.978;2024-03-29T00:17:07;33.34;28.61;42.13;;
67302;Laerm;57659;51.436;5.978;2024-03-29T00:17:17;33.37;28.71;42.30;;
67302;Laerm;57659;51.436;5.978;2024-03-29T00:17:28;33.05;28.43;42.09;;
67302;Laerm;57659;51.436;5.978;2024-03-29T00:17:38;32.95;28.79;41.72;;
67302;Laerm;57659;51.436;5.978;2024-03-29T00:17:49;33.17;28.58;42.12;;
67302;Laerm;57659;51.436;5.978;2024-03-29T00:17:59;32.96;28.48;42.10;;
67302;Laerm;57659;51.436;5.978;2024-03-29T00:18:09;32.99;28.46;42.62;;
67302;Laerm;57659;51.436;5.978;2024-03-29T00:18:20;32.93;28.46;41.95;;
67302;Laerm;57659;51.436;5.978;2024-03-29T00:18:30;33.33;28.41;42.74;;
67302;Laerm;57659;51.436;5.978;2024-03-29T00:18:40;33.59;28.26;43.03;;
67302;Laerm;57659;51.436;5.978;2024-03-29T00:18:51;33.34;28.38;42.60;;
67302;Laerm;57659;51.436;5.978;2024-03-29T00:19:01;33.28;28.55;42.20;;
67302;Laerm;57659;51.436;5.978;2024-03-29T00:19:11;33.24;28.52;42.85;;
67302;Laerm;57659;51.436;5.978;2024-03-29T00:19:22;33.63;28.63;42.86;;
67302;Laerm;57659;51.436;5.978;2024-03-29T00:19:32;33.44;28.33;42.50;;
67302;Laerm;57659;51.436;5.978;2024-03-29T00:19:42;32.95;28.38;42.06;;
67302;Laerm;57659;51.436;5.978;2024-03-29T00:19:52;33.18;28.50;41.62;;
67302;Laerm;57659;51.436;5.978;2024-03-29T00:20:03;33.58;28.53;42.04;;
67302;Laerm;57659;51.436;5.978;2024-03-29T00:20:14;33.41;28.29;41.98;;
67302;Laerm;57659;51.436;5.978;2024-03-29T00:20:24;32.89;28.58;41.56;;
67302;Laerm;57659;51.436;5.978;2024-03-29T00:20:34;32.94;28.50;41.41;;
67302;Laerm;57659;51.436;5.978;2024-03-29T00:20:44;33.24;28.48;42.01;;
67302;Laerm;57659;51.436;5.978;2024-03-29T00:20:55;33.24;28.58;42.18;;
67302;Laerm;57659;51.436;5.978;2024-03-29T00:21:05;32.87;28.58;41.57;;
67302;Laerm;57659;51.436;5.978;2024-03-29T00:21:16;33.27;28.73;42.36;;
67302;Laerm;57659;51.436;5.978;2024-03-29T00:21:26;33.19;28.57;42.24;;
67302;Laerm;57659;51.436;5.978;2024-03-29T00:21:36;33.36;28.65;42.66;;
67302;Laerm;57659;51.436;5.978;2024-03-29T00:21:47;32.97;28.31;41.51;;
67302;Laerm;57659;51.436;5.978;2024-03-29T00:21:57;33.30;28.55;42.55;;
67302;Laerm;57659;51.436;5.978;2024-03-29T00:22:07;33.21;28.61;42.74;;
67302;Laerm;57659;51.436;5.978;2024-03-29T00:22:17;33.55;28.56;42.84;;
67302;Laerm;57659;51.436;5.978;2024-03-29T00:22:28;33.24;28.48;42.41;;
67302;Laerm;57659;51.436;5.978;2024-03-29T00:22:38;33.60;28.68;43.16;;
67302;Laerm;57659;51.436;5.978;2024-03-29T00:22:48;33.32;28.67;42.37;;
67302;Laerm;57659;51.436;5.978;2024-03-29T00:22:59;33.47;28.34;42.39;;
67302;Laerm;57659;51.436;5.978;2024-03-29T00:23:09;33.19;28.58;42.71;;
67302;Laerm;57659;51.436;5.978;2024-03-29T00:23:19;33.40;28.34;41.99;;
67302;Laerm;57659;51.436;5.978;2024-03-29T00:23:30;33.41;28.64;42.21;;
67302;Laerm;57659;51.436;5.978;2024-03-29T00:23:40;32.93;28.54;41.22;;
67302;Laerm;57659;51.436;5.978;2024-03-29T00:23:50;32.86;28.35;40.98;;
67302;Laerm;57659;51.436;5.978;2024-03-29T00:24:01;32.85;28.24;41.40;;
67302;Laerm;57659;51.436;5.978;2024-03-29T00:24:11;33.21;28.65;41.53;;
67302;Laerm;57659;51.436;5.978;2024-03-29T00:24:21;32.50;28.43;40.82;;
67302;Laerm;57659;51.436;5.978;2024-03-29T00:24:31;32.68;28.57;40.74;;
67302;Laerm;57659;51.436;5.978;2024-03-29T00:24:43;32.98;28.47;41.72;;
67302;Laerm;57659;51.436;5.978;2024-03-29T00:24:53;33.23;28.58;41.70;;
67302;Laerm;57659;51.436;5.978;2024-03-29T00:25:03;32.87;28.51;41.51;;
67302;Laerm;57659;51.436;5.978;2024-03-29T00:25:14;32.79;28.43;41.58;;
67302;Laerm;57659;51.436;5.978;2024-03-29T00:25:25;33.09;28.55;42.04;;
67302;Laerm;57659;51.436;5.978;2024-03-29T00:25:36;33.37;28.25;42.38;;
67302;Laerm;57659;51.436;5.978;2024-03-29T00:25:46;32.78;28.56;41.47;;
67302;Laerm;57659;51.436;5.978;2024-03-29T00:25:56;32.78;28.57;42.01;;
67302;Laerm;57659;51.436;5.978;2024-03-29T00:26:08;33.26;28.70;42.17;;
67302;Laerm;57659;51.436;5.978;2024-03-29T00:26:18;33.41;28.75;42.08;;
67302;Laerm;57659;51.436;5.978;2024-03-29T00:26:28;33.49;28.44;45.75;;
67302;Laerm;57659;51.436;5.978;2024-03-29T00:26:39;32.70;28.59;41.73;;
67302;Laerm;57659;51.436;5.978;2024-03-29T00:26:49;32.70;28.46;41.02;;
67302;Laerm;57659;51.436;5.978;2024-03-29T00:26:59;32.99;28.54;40.75;;
67302;Laerm;57659;51.436;5.978;2024-03-29T00:27:09;32.68;28.52;40.30;;
67302;Laerm;57659;51.436;5.978;2024-03-29T00:27:20;32.67;28.51;40.97;;
67302;Laerm;57659;51.436;5.978;2024-03-29T00:27:30;33.10;28.60;41.09;;
67302;Laerm;57659;51.436;5.978;2024-03-29T00:27:40;33.10;28.68;41.90;;
67302;Laerm;57659;51.436;5.978;2024-03-29T00:27:51;32.67;28.52;40.63;;
67302;Laerm;57659;51.436;5.978;2024-03-29T00:28:01;32.61;28.41;40.87;;
67302;Laerm;57659;51.436;5.978;2024-03-29T00:28:11;32.99;28.43;41.75;;
67302;Laerm;57659;51.436;5.978;2024-03-29T00:28:22;33.10;28.52;41.57;;
67302;Laerm;57659;51.436;5.978;2024-03-29T00:28:32;32.79;28.43;41.07;;
67302;Laerm;57659;51.436;5.978;2024-03-29T00:28:42;32.96;28.67;41.87;;
67302;Laerm;57659;51.436;5.978;2024-03-29T00:28:52;33.05;28.39;41.90;;
67302;Laerm;57659;51.436;5.978;2024-03-29T00:29:03;32.95;28.62;41.20;;
67302;Laerm;57659;51.436;5.978;2024-03-29T00:29:13;32.96;28.64;41.36;;
67302;Laerm;57659;51.436;5.978;2024-03-29T00:29:23;32.95;28.46;42.07;;
67302;Laerm;57659;51.436;5.978;2024-03-29T00:29:34;33.07;28.69;41.69;;
67302;Laerm;57659;51.436;5.978;2024-03-29T00:29:44;32.93;28.70;40.77;;
67302;Laerm;57659;51.436;5.978;2024-03-29T00:29:57;32.66;28.61;41.66;;
67302;Laerm;57659;51.436;5.978;2024-03-29T00:30:07;32.83;28.49;42.15;;
67302;Laerm;57659;51.436;5.978;2024-03-29T00:30:17;33.13;28.60;41.67;;
67302;Laerm;57659;51.436;5.978;2024-03-29T00:30:27;32.70;28.56;40.87;;
67302;Laerm;57659;51.436;5.978;2024-03-29T00:30:38;42.93;28.82;60.10;;
67302;Laerm;57659;51.436;5.978;2024-03-29T00:30:48;33.66;28.72;42.18;;
67302;Laerm;57659;51.436;5.978;2024-03-29T00:30:58;33.40;28.42;42.52;;
67302;Laerm;57659;51.436;5.978;2024-03-29T00:31:09;33.82;28.57;43.04;;
67302;Laerm;57659;51.436;5.978;2024-03-29T00:31:19;32.77;28.72;41.06;;
67302;Laerm;57659;51.436;5.978;2024-03-29T00:31:29;33.36;28.52;42.66;;
67302;Laerm;57659;51.436;5.978;2024-03-29T00:31:39;33.55;28.59;42.86;;
67302;Laerm;57659;51.436;5.978;2024-03-29T00:31:50;33.65;28.53;42.99;;
67302;Laerm;57659;51.436;5.978;2024-03-29T00:32:00;32.80;28.24;41.73;;
67302;Laerm;57659;51.436;5.978;2024-03-29T00:32:11;33.36;28.22;42.71;;
67302;Laerm;57659;51.436;5.978;2024-03-29T00:32:21;33.57;28.51;42.49;;
67302;Laerm;57659;51.436;5.978;2024-03-29T00:32:32;33.56;28.53;42.97;;
67302;Laerm;57659;51.436;5.978;2024-03-29T00:32:42;33.07;28.42;42.53;;
67302;Laerm;57659;51.436;5.978;2024-03-29T00:32:52;32.96;28.49;42.10;;
67302;Laerm;57659;51.436;5.978;2024-03-29T00:33:02;33.11;28.41;42.96;;
67302;Laerm;57659;51.436;5.978;2024-03-29T00:33:13;33.37;28.59;41.59;;
67302;Laerm;57659;51.436;5.978;2024-03-29T00:33:23;33.16;28.59;42.58;;
67302;Laerm;57659;51.436;5.978;2024-03-29T00:33:34;33.24;28.52;42.64;;
67302;Laerm;57659;51.436;5.978;2024-03-29T00:33:44;33.23;28.71;41.82;;
67302;Laerm;57659;51.436;5.978;2024-03-29T00:33:54;33.18;28.70;41.76;;
67302;Laerm;57659;51.436;5.978;2024-03-29T00:34:05;32.71;28.55;40.74;;
67302;Laerm;57659;51.436;5.978;2024-03-29T00:34:15;33.18;28.28;41.85;;
67302;Laerm;57659;51.436;5.978;2024-03-29T00:34:25;33.13;28.39;41.63;;
67302;Laerm;57659;51.436;5.978;2024-03-29T00:34:35;33.32;28.44;41.83;;
67302;Laerm;57659;51.436;5.978;2024-03-29T00:34:45;32.92;28.58;41.33;;
67302;Laerm;57659;51.436;5.978;2024-03-29T00:34:56;33.35;28.52;42.12;;
67302;Laerm;57659;51.436;5.978;2024-03-29T00:35:08;33.11;28.52;41.84;;
67302;Laerm;57659;51.436;5.978;2024-03-29T00:35:18;33.23;28.46;42.17;;
67302;Laerm;57659;51.436;5.978;2024-03-29T00:35:30;33.14;28.57;42.04;;
67302;Laerm;57659;51.436;5.978;2024-03-29T00:35:41;33.22;28.52;42.17;;
67302;Laerm;57659;51.436;5.978;2024-03-29T00:35:51;33.08;28.57;41.71;;
67302;Laerm;57659;51.436;5.978;2024-03-29T00:36:02;32.64;28.40;41.12;;
67302;Laerm;57659;51.436;5.978;2024-03-29T00:36:12;32.99;28.48;42.18;;
67302;Laerm;57659;51.436;5.978;2024-03-29T00:36:22;32.94;28.56;42.31;;
67302;Laerm;57659;51.436;5.978;2024-03-29T00:36:33;32.83;28.45;42.41;;
67302;Laerm;57659;51.436;5.978;2024-03-29T00:36:43;32.62;28.38;40.62;;
67302;Laerm;57659;51.436;5.978;2024-03-29T00:36:53;32.84;28.43;42.49;;
67302;Laerm;57659;51.436;5.978;2024-03-29T00:37:03;33.16;28.24;42.38;;
67302;Laerm;57659;51.436;5.978;2024-03-29T00:37:14;33.35;28.60;41.26;;
67302;Laerm;57659;51.436;5.978;2024-03-29T00:37:24;32.95;28.64;41.08;;
67302;Laerm;57659;51.436;5.978;2024-03-29T00:37:34;33.03;28.44;41.85;;
67302;Laerm;57659;51.436;5.978;2024-03-29T00:37:44;33.34;28.57;42.01;;
67302;Laerm;57659;51.436;5.978;2024-03-29T00:37:55;33.61;28.48;42.10;;
67302;Laerm;57659;51.436;5.978;2024-03-29T00:38:05;33.14;28.70;42.09;;
67302;Laerm;57659;51.436;5.978;2024-03-29T00:38:15;33.01;28.59;41.25;;
67302;Laerm;57659;51.436;5.978;2024-03-29T00:38:25;33.29;28.46;42.45;;
67302;Laerm;57659;51.436;5.978;2024-03-29T00:38:36;33.65;28.53;42.70;;
67302;Laerm;57659;51.436;5.978;2024-03-29T00:38:46;33.24;28.68;42.31;;
67302;Laerm;57659;51.436;5.978;2024-03-29T00:38:56;33.02;28.41;41.54;;
67302;Laerm;57659;51.436;5.978;2024-03-29T00:39:06;33.61;28.59;42.22;;
67302;Laerm;57659;51.436;5.978;2024-03-29T00:39:21;34.05;28.69;42.57;;
67302;Laerm;57659;51.436;5.978;2024-03-29T00:39:31;33.33;28.67;42.51;;
67302;Laerm;57659;51.436;5.978;2024-03-29T00:39:41;33.29;28.64;43.01;;
67302;Laerm;57659;51.436;5.978;2024-03-29T00:39:52;33.53;28.54;42.99;;
67302;Laerm;57659;51.436;5.978;2024-03-29T00:40:02;33.27;28.59;43.31;;
67302;Laerm;57659;51.436;5.978;2024-03-29T00:40:12;33.01;28.40;42.35;;
67302;Laerm;57659;51.436;5.978;2024-03-29T00:40:23;33.30;28.50;43.03;;
67302;Laerm;57659;51.436;5.978;2024-03-29T00:40:37;33.18;28.39;42.34;;
67302;Laerm;57659;51.436;5.978;2024-03-29T00:40:48;33.28;28.52;41.67;;
67302;Laerm;57659;51.436;5.978;2024-03-29T00:40:58;33.37;28.66;42.17;;
67302;Laerm;57659;51.436;5.978;2024-03-29T00:41:08;33.29;28.58;42.79;;
67302;Laerm;57659;51.436;5.978;2024-03-29T00:41:19;33.44;28.48;42.47;;
67302;Laerm;57659;51.436;5.978;2024-03-29T00:41:29;33.29;28.48;42.12;;
67302;Laerm;57659;51.436;5.978;2024-03-29T00:41:39;33.30;28.56;42.10;;
67302;Laerm;57659;51.436;5.978;2024-03-29T00:41:49;33.23;28.71;41.93;;
67302;Laerm;57659;51.436;5.978;2024-03-29T00:42:00;33.39;28.71;41.87;;
67302;Laerm;57659;51.436;5.978;2024-03-29T00:42:10;33.02;28.53;42.60;;
67302;Laerm;57659;51.436;5.978;2024-03-29T00:42:23;33.25;28.39;42.65;;
67302;Laerm;57659;51.436;5.978;2024-03-29T00:42:34;33.22;28.60;42.37;;
67302;Laerm;57659;51.436;5.978;2024-03-29T00:42:44;32.99;28.54;42.44;;
67302;Laerm;57659;51.436;5.978;2024-03-29T00:42:55;32.88;28.60;41.87;;
67302;Laerm;57659;51.436;5.978;2024-03-29T00:43:05;33.22;28.49;42.61;;
67302;Laerm;57659;51.436;5.978;2024-03-29T00:43:15;33.54;28.39;43.27;;
67302;Laerm;57659;51.436;5.978;2024-03-29T00:43:26;33.42;28.62;42.89;;
67302;Laerm;57659;51.436;5.978;2024-03-29T00:43:36;32.93;28.31;41.85;;
67302;Laerm;57659;51.436;5.978;2024-03-29T00:43:46;33.36;28.56;43.11;;
67302;Laerm;57659;51.436;5.978;2024-03-29T00:43:57;33.86;28.31;43.67;;
67302;Laerm;57659;51.436;5.978;2024-03-29T00:44:07;33.79;28.75;42.99;;
67302;Laerm;57659;51.436;5.978;2024-03-29T00:44:18;33.14;28.63;43.01;;
67302;Laerm;57659;51.436;5.978;2024-03-29T00:44:28;33.40;28.46;43.27;;
67302;Laerm;57659;51.436;5.978;2024-03-29T00:44:38;33.83;28.81;42.84;;
67302;Laerm;57659;51.436;5.978;2024-03-29T00:44:49;43.09;28.82;49.67;;
67302;Laerm;57659;51.436;5.978;2024-03-29T00:44:59;44.89;39.22;50.23;;
67302;Laerm;57659;51.436;5.978;2024-03-29T00:45:09;44.29;31.04;49.62;;
67302;Laerm;57659;51.436;5.978;2024-03-29T00:45:19;33.73;28.85;42.24;;
67302;Laerm;57659;51.436;5.978;2024-03-29T00:45:30;33.75;28.53;42.60;;
67302;Laerm;57659;51.436;5.978;2024-03-29T00:45:40;33.64;28.56;42.37;;
67302;Laerm;57659;51.436;5.978;2024-03-29T00:45:50;33.41;28.37;42.50;;
67302;Laerm;57659;51.436;5.978;2024-03-29T00:46:01;33.68;28.66;42.74;;
67302;Laerm;57659;51.436;5.978;2024-03-29T00:46:11;33.69;28.58;42.92;;
67302;Laerm;57659;51.436;5.978;2024-03-29T00:46:21;33.16;28.52;41.75;;
67302;Laerm;57659;51.436;5.978;2024-03-29T00:46:32;33.56;28.49;42.83;;
67302;Laerm;57659;51.436;5.978;2024-03-29T00:46:42;33.08;28.37;42.79;;
67302;Laerm;57659;51.436;5.978;2024-03-29T00:46:52;33.62;28.48;43.28;;
67302;Laerm;57659;51.436;5.978;2024-03-29T00:47:02;33.27;28.46;42.35;;
67302;Laerm;57659;51.436;5.978;2024-03-29T00:47:13;33.59;28.59;43.26;;
67302;Laerm;57659;51.436;5.978;2024-03-29T00:47:26;33.16;28.50;42.63;;
67302;Laerm;57659;51.436;5.978;2024-03-29T00:47:36;33.39;28.36;43.07;;
67302;Laerm;57659;51.436;5.978;2024-03-29T00:47:47;33.18;28.11;42.02;;
67302;Laerm;57659;51.436;5.978;2024-03-29T00:47:57;33.48;28.66;42.94;;
67302;Laerm;57659;51.436;5.978;2024-03-29T00:48:07;33.05;28.68;42.55;;
67302;Laerm;57659;51.436;5.978;2024-03-29T00:48:17;32.88;28.70;41.72;;
67302;Laerm;57659;51.436;5.978;2024-03-29T00:48:29;33.17;28.77;41.75;;
67302;Laerm;57659;51.436;5.978;2024-03-29T00:48:40;34.25;28.84;43.37;;
67302;Laerm;57659;51.436;5.978;2024-03-29T00:48:51;33.05;28.52;42.61;;
67302;Laerm;57659;51.436;5.978;2024-03-29T00:49:02;32.43;28.56;40.65;;
67302;Laerm;57659;51.436;5.978;2024-03-29T00:49:12;32.97;28.45;42.54;;
67302;Laerm;57659;51.436;5.978;2024-03-29T00:49:22;33.39;27.94;42.01;;
67302;Laerm;57659;51.436;5.978;2024-03-29T00:49:32;33.45;28.52;42.10;;
67302;Laerm;57659;51.436;5.978;2024-03-29T00:49:43;33.03;28.46;41.85;;
67302;Laerm;57659;51.436;5.978;2024-03-29T00:49:53;33.04;28.38;42.13;;
67302;Laerm;57659;51.436;5.978;2024-03-29T00:50:04;33.83;28.58;42.46;;
67302;Laerm;57659;51.436;5.978;2024-03-29T00:50:14;33.73;28.56;42.97;;
67302;Laerm;57659;51.436;5.978;2024-03-29T00:50:24;33.14;28.61;41.77;;
67302;Laerm;57659;51.436;5.978;2024-03-29T00:50:35;33.00;28.65;41.21;;
67302;Laerm;57659;51.436;5.978;2024-03-29T00:50:47;33.18;28.69;42.00;;
67302;Laerm;57659;51.436;5.978;2024-03-29T00:50:57;33.37;28.59;42.15;;
67302;Laerm;57659;51.436;5.978;2024-03-29T00:51:07;32.94;28.54;41.18;;
67302;Laerm;57659;51.436;5.978;2024-03-29T00:51:18;32.50;28.73;40.92;;
67302;Laerm;57659;51.436;5.978;2024-03-29T00:51:28;32.60;28.53;41.29;;
67302;Laerm;57659;51.436;5.978;2024-03-29T00:51:39;32.99;28.57;41.82;;
67302;Laerm;57659;51.436;5.978;2024-03-29T00:51:49;32.92;28.64;41.52;;
67302;Laerm;57659;51.436;5.978;2024-03-29T00:52:02;32.59;28.76;41.38;;
67302;Laerm;57659;51.436;5.978;2024-03-29T00:52:12;37.27;28.92;47.66;;
67302;Laerm;57659;51.436;5.978;2024-03-29T00:52:22;45.11;38.38;49.74;;
67302;Laerm;57659;51.436;5.978;2024-03-29T00:52:33;44.21;39.75;48.31;;
67302;Laerm;57659;51.436;5.978;2024-03-29T00:52:43;37.49;28.78;46.07;;
67302;Laerm;57659;51.436;5.978;2024-03-29T00:52:53;32.91;28.44;41.11;;
67302;Laerm;57659;51.436;5.978;2024-03-29T00:53:04;32.92;28.95;41.12;;
67302;Laerm;57659;51.436;5.978;2024-03-29T00:53:14;32.71;28.32;41.77;;
67302;Laerm;57659;51.436;5.978;2024-03-29T00:53:24;33.02;28.59;42.15;;
67302;Laerm;57659;51.436;5.978;2024-03-29T00:53:35;32.87;28.34;41.16;;
67302;Laerm;57659;51.436;5.978;2024-03-29T00:53:45;32.84;28.40;40.69;;
67302;Laerm;57659;51.436;5.978;2024-03-29T00:53:56;32.88;28.68;41.96;;
67302;Laerm;57659;51.436;5.978;2024-03-29T00:54:06;32.38;28.69;40.41;;
67302;Laerm;57659;51.436;5.978;2024-03-29T00:54:16;32.60;28.74;39.95;;
67302;Laerm;57659;51.436;5.978;2024-03-29T00:54:26;32.19;28.61;40.26;;
67302;Laerm;57659;51.436;5.978;2024-03-29T00:54:37;32.25;28.56;39.82;;
67302;Laerm;57659;51.436;5.978;2024-03-29T00:54:47;32.21;28.53;39.82;;
67302;Laerm;57659;51.436;5.978;2024-03-29T00:54:57;32.16;28.41;40.12;;
67302;Laerm;57659;51.436;5.978;2024-03-29T00:55:08;31.77;28.36;39.52;;
67302;Laerm;57659;51.436;5.978;2024-03-29T00:55:18;31.88;28.56;39.68;;
67302;Laerm;57659;51.436;5.978;2024-03-29T00:55:28;32.33;28.70;40.68;;
67302;Laerm;57659;51.436;5.978;2024-03-29T00:55:39;32.59;28.56;40.82;;
67302;Laerm;57659;51.436;5.978;2024-03-29T00:55:49;32.01;28.53;40.73;;
67302;Laerm;57659;51.436;5.978;2024-03-29T00:55:59;32.08;28.41;40.09;;
67302;Laerm;57659;51.436;5.978;2024-03-29T00:56:09;32.52;28.64;41.17;;
67302;Laerm;57659;51.436;5.978;2024-03-29T00:56:20;32.70;28.53;41.01;;
67302;Laerm;57659;51.436;5.978;2024-03-29T00:56:30;32.39;28.49;41.15;;
67302;Laerm;57659;51.436;5.978;2024-03-29T00:56:40;31.92;28.58;40.06;;
67302;Laerm;57659;51.436;5.978;2024-03-29T00:56:51;32.39;28.25;41.15;;
67302;Laerm;57659;51.436;5.978;2024-03-29T00:57:02;34.10;28.51;44.78;;
67302;Laerm;57659;51.436;5.978;2024-03-29T00:57:12;32.34;28.59;39.43;;
67302;Laerm;57659;51.436;5.978;2024-03-29T00:57:24;32.09;28.61;39.37;;
67302;Laerm;57659;51.436;5.978;2024-03-29T00:57:34;32.13;28.28;39.95;;
67302;Laerm;57659;51.436;5.978;2024-03-29T00:57:45;32.45;28.45;40.63;;
67302;Laerm;57659;51.436;5.978;2024-03-29T00:57:55;32.23;28.50;39.94;;
67302;Laerm;57659;51.436;5.978;2024-03-29T00:58:05;32.33;28.41;40.51;;
67302;Laerm;57659;51.436;5.978;2024-03-29T00:58:16;32.30;28.29;40.69;;
67302;Laerm;57659;51.436;5.978;2024-03-29T00:58:26;32.61;28.23;41.15;;